Back to Top

Language: 

My Weather Underground Personal Weather Station Historical Data with Graphs...

Delerius Weather Station Historical Data
Daily Summary for June 16, 2017 Units:  English    Metric   Both
« Previous Day
Next Day »
Daily Weekly Monthly Yearly Custom
  High: Low: Average:
Temperature: 69.3 °F 55.8 °F 62.4 °F
Dew Point: 59.1 °F 49.5 °F 53.8 °F
Humidity: 86 % 59 % 74 %
Wind Speed: 14.0 mph 2.0 mph 8.5 mph
Wind Gust: 26.0 mph - -
Wind:- - West
Pressure: 30.26 in 29.98 in -
Precipitation: 0.00 in    
Historical Graphs
 
 
Tabular Data for June 16, 2017
Time Temperature Dew Point Pressure Wind Wind Speed Wind Gust Humidity Rainfall Rate (Hourly) solar Conditions
00:04 57.9 °F 50.8 °F 29.98 in West 10.0 mph 18.0 mph 77 % 0.00 in 0 W/m2
00:09 57.7 °F 50.6 °F 29.99 in West 9.0 mph 18.0 mph 77 % 0.00 in 0 W/m2
00:14 57.7 °F 50.9 °F 29.99 in West 7.0 mph 16.0 mph 78 % 0.00 in 0 W/m2
00:19 57.4 °F 50.6 °F 29.99 in West 7.0 mph 15.0 mph 78 % 0.00 in 0 W/m2
00:24 57.4 °F 50.6 °F 29.99 in West 8.0 mph 13.0 mph 78 % 0.00 in 0 W/m2
00:29 57.2 °F 50.4 °F 30.00 in West 6.0 mph 12.0 mph 78 % 0.00 in 0 W/m2
00:34 57.0 °F 50.2 °F 30.00 in West 6.0 mph 12.0 mph 78 % 0.00 in 0 W/m2
00:39 56.8 °F 50.1 °F 30.00 in West 5.0 mph 11.0 mph 78 % 0.00 in 0 W/m2
00:44 56.7 °F 49.9 °F 30.00 in West 3.0 mph 10.0 mph 78 % 0.00 in 0 W/m2
00:49 56.7 °F 50.2 °F 30.00 in West 5.0 mph 10.0 mph 79 % 0.00 in 0 W/m2
00:54 56.5 °F 50.0 °F 30.00 in West 8.0 mph 15.0 mph 79 % 0.00 in 0 W/m2
00:59 56.5 °F 50.0 °F 30.00 in West 9.0 mph 15.0 mph 79 % 0.00 in 0 W/m2
01:04 56.5 °F 50.0 °F 30.00 in West 8.0 mph 15.0 mph 79 % 0.00 in 0 W/m2
01:09 56.7 °F 50.2 °F 30.01 in West 8.0 mph 13.0 mph 79 % 0.00 in 0 W/m2
01:14 56.7 °F 50.6 °F 30.01 in West 8.0 mph 13.0 mph 80 % 0.00 in 0 W/m2
01:15 56.7 °F 50.6 °F 30.01 in West 8.0 mph 13.0 mph 80 % 0.00 in 0 W/m2
01:20 56.7 °F 50.6 °F 30.01 in West 9.0 mph 15.0 mph 80 % 0.00 in 0 W/m2
01:25 56.7 °F 50.6 °F 30.01 in West 9.0 mph 19.0 mph 80 % 0.00 in 0 W/m2
01:30 56.8 °F 50.7 °F 30.01 in West 9.0 mph 19.0 mph 80 % 0.00 in 0 W/m2
01:35 56.8 °F 50.7 °F 30.00 in West 9.0 mph 16.0 mph 80 % 0.00 in 0 W/m2
01:40 56.8 °F 50.7 °F 30.01 in West 8.0 mph 16.0 mph 80 % 0.00 in 0 W/m2
01:45 56.8 °F 50.7 °F 30.01 in West 8.0 mph 15.0 mph 80 % 0.00 in 0 W/m2
01:50 56.8 °F 50.7 °F 30.01 in West 8.0 mph 16.0 mph 80 % 0.00 in 0 W/m2
01:55 56.8 °F 51.1 °F 30.02 in West 8.0 mph 16.0 mph 81 % 0.00 in 0 W/m2
02:00 56.8 °F 51.1 °F 30.02 in West 8.0 mph 15.0 mph 81 % 0.00 in 0 W/m2
02:05 56.8 °F 51.1 °F 30.02 in West 8.0 mph 15.0 mph 81 % 0.00 in 0 W/m2
02:10 56.8 °F 51.4 °F 30.02 in WNW 5.0 mph 12.0 mph 82 % 0.00 in 0 W/m2
02:15 56.8 °F 51.4 °F 30.03 in NW 2.0 mph 9.0 mph 82 % 0.00 in 0 W/m2
02:20 56.8 °F 51.4 °F 30.03 in West 2.0 mph 8.0 mph 82 % 0.00 in 0 W/m2
02:25 56.7 °F 51.2 °F 30.03 in West 5.0 mph 12.0 mph 82 % 0.00 in 0 W/m2
02:30 56.7 °F 50.9 °F 30.03 in West 7.0 mph 16.0 mph 81 % 0.00 in 0 W/m2
02:35 56.7 °F 50.6 °F 30.03 in West 9.0 mph 16.0 mph 80 % 0.00 in 0 W/m2
02:40 56.8 °F 50.7 °F 30.03 in West 9.0 mph 16.0 mph 80 % 0.00 in 0 W/m2
02:45 56.8 °F 50.7 °F 30.03 in WNW 9.0 mph 16.0 mph 80 % 0.00 in 0 W/m2
02:50 56.8 °F 50.7 °F 30.03 in West 8.0 mph 16.0 mph 80 % 0.00 in 0 W/m2
02:55 56.8 °F 50.7 °F 30.03 in West 8.0 mph 13.0 mph 80 % 0.00 in 0 W/m2
03:00 56.8 °F 50.7 °F 30.03 in West 10.0 mph 22.0 mph 80 % 0.00 in 0 W/m2
03:05 56.7 °F 50.6 °F 30.03 in WNW 11.0 mph 22.0 mph 80 % 0.00 in 0 W/m2
03:10 56.7 °F 50.6 °F 30.03 in WNW 11.0 mph 21.0 mph 80 % 0.00 in 0 W/m2
03:16 56.7 °F 50.6 °F 30.04 in WNW 10.0 mph 18.0 mph 80 % 0.00 in 0 W/m2
03:21 56.7 °F 50.6 °F 30.04 in WNW 9.0 mph 20.0 mph 80 % 0.00 in 0 W/m2
03:26 56.7 °F 50.6 °F 30.04 in WNW 9.0 mph 20.0 mph 80 % 0.00 in 0 W/m2
03:31 56.7 °F 50.6 °F 30.04 in West 10.0 mph 21.0 mph 80 % 0.00 in 0 W/m2
03:36 56.5 °F 50.7 °F 30.04 in West 10.0 mph 21.0 mph 81 % 0.00 in 0 W/m2
03:41 56.5 °F 50.7 °F 30.04 in West 9.0 mph 18.0 mph 81 % 0.00 in 0 W/m2
03:46 56.5 °F 50.7 °F 30.05 in WNW 9.0 mph 18.0 mph 81 % 0.00 in 0 W/m2
03:51 56.5 °F 50.7 °F 30.05 in WNW 8.0 mph 15.0 mph 81 % 0.00 in 0 W/m2
03:56 56.3 °F 50.5 °F 30.05 in WNW 8.0 mph 13.0 mph 81 % 0.00 in 0 W/m2
04:01 56.3 °F 50.9 °F 30.06 in WNW 8.0 mph 13.0 mph 82 % 0.00 in 0 W/m2
04:06 56.3 °F 50.9 °F 30.06 in WNW 7.0 mph 12.0 mph 82 % 0.00 in 0 W/m2
04:11 56.3 °F 50.9 °F 30.06 in WNW 6.0 mph 12.0 mph 82 % 0.00 in 0 W/m2
04:16 56.1 °F 51.0 °F 30.06 in WNW 6.0 mph 10.0 mph 83 % 0.00 in 0 W/m2
04:21 56.1 °F 51.0 °F 30.06 in WNW 6.0 mph 10.0 mph 83 % 0.00 in 0 W/m2
04:26 55.9 °F 50.9 °F 30.06 in WNW 6.0 mph 11.0 mph 83 % 0.00 in 0 W/m2
04:31 55.9 °F 50.9 °F 30.06 in WNW 6.0 mph 11.0 mph 83 % 0.00 in 0 W/m2
04:36 55.9 °F 50.9 °F 30.07 in WNW 6.0 mph 11.0 mph 83 % 0.00 in 0 W/m2
04:41 55.8 °F 50.7 °F 30.06 in WNW 7.0 mph 14.0 mph 83 % 0.00 in 0 W/m2
04:46 55.8 °F 50.3 °F 30.07 in WNW 9.0 mph 14.0 mph 82 % 0.00 in 0 W/m2
04:51 55.8 °F 50.3 °F 30.07 in West 9.0 mph 20.0 mph 82 % 0.00 in 5 W/m2
04:56 55.8 °F 50.0 °F 30.07 in West 10.0 mph 20.0 mph 81 % 0.00 in 7 W/m2
05:01 55.8 °F 50.0 °F 30.08 in WNW 8.0 mph 16.0 mph 81 % 0.00 in 5 W/m2
05:06 55.8 °F 50.0 °F 30.07 in WNW 7.0 mph 13.0 mph 81 % 0.00 in 7 W/m2
05:11 55.8 °F 50.0 °F 30.08 in WNW 7.0 mph 12.0 mph 81 % 0.00 in 7 W/m2
05:16 55.8 °F 50.0 °F 30.08 in WNW 7.0 mph 14.0 mph 81 % 0.00 in 12 W/m2
05:21 55.8 °F 50.0 °F 30.08 in WNW 8.0 mph 14.0 mph 81 % 0.00 in 19 W/m2
05:26 55.8 °F 50.0 °F 30.08 in WNW 7.0 mph 11.0 mph 81 % 0.00 in 18 W/m2
05:31 55.8 °F 50.0 °F 30.08 in West 7.0 mph 15.0 mph 81 % 0.00 in 12 W/m2
05:36 55.9 °F 50.2 °F 30.08 in West 7.0 mph 15.0 mph 81 % 0.00 in 12 W/m2
05:41 55.9 °F 50.2 °F 30.08 in West 7.0 mph 11.0 mph 81 % 0.00 in 11 W/m2
05:46 55.9 °F 50.2 °F 30.08 in West 7.0 mph 11.0 mph 81 % 0.00 in 12 W/m2
05:51 55.9 °F 50.5 °F 30.08 in West 7.0 mph 12.0 mph 82 % 0.00 in 25 W/m2
05:56 55.8 °F 50.3 °F 30.09 in West 6.0 mph 12.0 mph 82 % 0.00 in 23 W/m2
06:01 55.8 °F 50.3 °F 30.09 in West 6.0 mph 11.0 mph 82 % 0.00 in 21 W/m2
06:06 55.8 °F 50.7 °F 30.09 in West 5.0 mph 11.0 mph 83 % 0.00 in 23 W/m2
06:11 55.8 °F 50.3 °F 30.09 in West 4.0 mph 8.0 mph 82 % 0.00 in 23 W/m2
06:16 55.8 °F 50.3 °F 30.09 in West 5.0 mph 10.0 mph 82 % 0.00 in 42 W/m2
06:21 55.9 °F 50.5 °F 30.09 in WNW 8.0 mph 14.0 mph 82 % 0.00 in 58 W/m2
06:26 55.9 °F 50.2 °F 30.09 in WNW 7.0 mph 14.0 mph 81 % 0.00 in 67 W/m2
06:29 56.1 °F 50.4 °F 30.09 in WNW 7.0 mph 12.0 mph 81 % 0.00 in 74 W/m2
06:34 56.3 °F 50.5 °F 30.10 in WNW 6.0 mph 12.0 mph 81 % 0.00 in 72 W/m2
06:39 56.5 °F 50.7 °F 30.10 in WNW 6.0 mph 10.0 mph 81 % 0.00 in 81 W/m2
06:44 56.7 °F 50.6 °F 30.10 in West 7.0 mph 11.0 mph 80 % 0.00 in 83 W/m2
06:49 56.7 °F 50.2 °F 30.10 in West 6.0 mph 11.0 mph 79 % 0.00 in 81 W/m2
06:54 56.8 °F 50.1 °F 30.10 in West 7.0 mph 15.0 mph 78 % 0.00 in 113 W/m2
06:59 56.8 °F 50.1 °F 30.11 in WNW 8.0 mph 15.0 mph 78 % 0.00 in 86 W/m2
07:04 57.0 °F 49.9 °F 30.10 in West 9.0 mph 18.0 mph 77 % 0.00 in 111 W/m2
07:09 57.0 °F 49.9 °F 30.11 in West 10.0 mph 18.0 mph 77 % 0.00 in 81 W/m2
07:14 57.0 °F 49.9 °F 30.11 in West 10.0 mph 16.0 mph 77 % 0.00 in 76 W/m2
07:19 57.0 °F 49.5 °F 30.12 in West 9.0 mph 15.0 mph 76 % 0.00 in 56 W/m2
07:24 57.0 °F 49.9 °F 30.12 in West 9.0 mph 15.0 mph 77 % 0.00 in 67 W/m2
07:29 57.0 °F 49.5 °F 30.12 in West 10.0 mph 20.0 mph 76 % 0.00 in 97 W/m2
07:34 57.0 °F 49.9 °F 30.12 in West 12.0 mph 22.0 mph 77 % 0.00 in 172 W/m2
07:40 57.4 °F 50.2 °F 30.12 in West 11.0 mph 22.0 mph 77 % 0.00 in 172 W/m2
07:45 57.6 °F 50.0 °F 30.12 in West 11.0 mph 20.0 mph 76 % 0.00 in 167 W/m2
07:50 57.9 °F 50.4 °F 30.13 in West 10.0 mph 20.0 mph 76 % 0.00 in 153 W/m2
07:55 58.1 °F 49.9 °F 30.13 in West 10.0 mph 19.0 mph 74 % 0.00 in 128 W/m2
08:00 58.1 °F 50.2 °F 30.13 in WNW 9.0 mph 19.0 mph 75 % 0.00 in 118 W/m2
08:05 58.1 °F 50.2 °F 30.13 in WNW 7.0 mph 13.0 mph 75 % 0.00 in 123 W/m2
08:10 58.1 °F 49.9 °F 30.14 in WNW 8.0 mph 15.0 mph 74 % 0.00 in 116 W/m2
08:15 58.3 °F 50.0 °F 30.13 in WNW 8.0 mph 15.0 mph 74 % 0.00 in 172 W/m2
08:20 58.3 °F 50.0 °F 30.14 in WNW 8.0 mph 15.0 mph 74 % 0.00 in 223 W/m2
08:25 58.6 °F 50.4 °F 30.14 in WNW 8.0 mph 15.0 mph 74 % 0.00 in 176 W/m2
08:30 58.8 °F 50.2 °F 30.14 in WNW 7.0 mph 16.0 mph 73 % 0.00 in 121 W/m2
08:35 58.8 °F 49.8 °F 30.14 in WNW 8.0 mph 16.0 mph 72 % 0.00 in 104 W/m2
08:40 58.8 °F 50.2 °F 30.14 in West 9.0 mph 18.0 mph 73 % 0.00 in 204 W/m2
08:45 58.8 °F 50.2 °F 30.14 in West 10.0 mph 18.0 mph 73 % 0.00 in 295 W/m2
08:50 59.2 °F 50.5 °F 30.14 in West 11.0 mph 18.0 mph 73 % 0.00 in 330 W/m2
08:55 59.7 °F 51.0 °F 30.14 in WNW 11.0 mph 19.0 mph 73 % 0.00 in 301 W/m2
09:00 60.4 °F 51.0 °F 30.14 in WNW 10.0 mph 19.0 mph 71 % 0.00 in 250 W/m2
09:05 60.8 °F 51.0 °F 30.15 in WNW 10.0 mph 20.0 mph 70 % 0.00 in 387 W/m2
09:10 61.0 °F 50.7 °F 30.15 in WNW 12.0 mph 23.0 mph 69 % 0.00 in 236 W/m2
09:15 61.2 °F 50.9 °F 30.15 in WNW 12.0 mph 23.0 mph 69 % 0.00 in 847 W/m2
09:20 61.0 °F 50.3 °F 30.15 in WNW 10.0 mph 19.0 mph 68 % 0.00 in 719 W/m2
09:25 61.3 °F 51.1 °F 30.15 in WNW 10.0 mph 19.0 mph 69 % 0.00 in 680 W/m2
09:30 62.4 °F 50.9 °F 30.15 in WNW 10.0 mph 18.0 mph 66 % 0.00 in 605 W/m2
09:35 63.1 °F 50.8 °F 30.15 in WNW 10.0 mph 19.0 mph 64 % 0.00 in 740 W/m2
09:40 63.1 °F 50.3 °F 30.15 in WNW 11.0 mph 23.0 mph 63 % 0.00 in 218 W/m2
09:45 62.2 °F 49.9 °F 30.16 in West 12.0 mph 23.0 mph 64 % 0.00 in 281 W/m2
09:50 62.1 °F 50.2 °F 30.16 in WNW 12.0 mph 23.0 mph 65 % 0.00 in 360 W/m2
09:55 62.4 °F 50.1 °F 30.15 in WNW 12.0 mph 21.0 mph 64 % 0.00 in 763 W/m2
10:00 63.1 °F 50.8 °F 30.16 in WNW 12.0 mph 20.0 mph 64 % 0.00 in 900 W/m2
10:05 63.9 °F 51.0 °F 30.16 in WNW 10.0 mph 18.0 mph 63 % 0.00 in 911 W/m2
10:10 64.0 °F 51.2 °F 30.16 in WNW 10.0 mph 19.0 mph 63 % 0.00 in 269 W/m2
10:15 63.7 °F 50.4 °F 30.16 in WNW 11.0 mph 19.0 mph 62 % 0.00 in 336 W/m2
10:20 63.7 °F 50.0 °F 30.17 in WNW 12.0 mph 21.0 mph 61 % 0.00 in 213 W/m2
10:26 64.0 °F 50.3 °F 30.16 in WNW 12.0 mph 21.0 mph 61 % 0.00 in 984 W/m2
10:31 64.6 °F 50.4 °F 30.16 in WNW 10.0 mph 18.0 mph 60 % 0.00 in 833 W/m2
10:36 64.8 °F 50.1 °F 30.16 in West 11.0 mph 22.0 mph 59 % 0.00 in 872 W/m2
10:41 65.3 °F 50.6 °F 30.17 in WNW 11.0 mph 22.0 mph 59 % 0.00 in 432 W/m2
10:46 65.7 °F 50.9 °F 30.17 in WNW 13.0 mph 22.0 mph 59 % 0.00 in 1127 W/m2
10:51 65.5 °F 51.2 °F 30.17 in West 13.0 mph 22.0 mph 60 % 0.00 in 536 W/m2
10:56 65.1 °F 51.3 °F 30.17 in West 11.0 mph 21.0 mph 61 % 0.00 in 360 W/m2
11:01 64.8 °F 51.0 °F 30.17 in WNW 11.0 mph 19.0 mph 61 % 0.00 in 455 W/m2
11:06 64.9 °F 52.0 °F 30.17 in WNW 10.0 mph 19.0 mph 63 % 0.00 in 970 W/m2
11:11 65.1 °F 51.3 °F 30.17 in WNW 10.0 mph 23.0 mph 61 % 0.00 in 311 W/m2
11:16 65.3 °F 51.5 °F 30.18 in WNW 11.0 mph 23.0 mph 61 % 0.00 in 385 W/m2
11:21 65.1 °F 51.8 °F 30.18 in West 10.0 mph 21.0 mph 62 % 0.00 in 452 W/m2
11:26 64.4 °F 51.5 °F 30.18 in West 11.0 mph 22.0 mph 63 % 0.00 in 297 W/m2
11:31 63.9 °F 51.0 °F 30.18 in West 12.0 mph 22.0 mph 63 % 0.00 in 218 W/m2
11:36 63.7 °F 51.7 °F 30.18 in West 10.0 mph 19.0 mph 65 % 0.00 in 264 W/m2
11:41 63.5 °F 51.5 °F 30.18 in WNW 11.0 mph 23.0 mph 65 % 0.00 in 262 W/m2
11:46 63.7 °F 52.1 °F 30.18 in WNW 13.0 mph 23.0 mph 66 % 0.00 in 552 W/m2
11:51 63.7 °F 52.1 °F 30.18 in WNW 13.0 mph 23.0 mph 66 % 0.00 in 461 W/m2
11:56 63.9 °F 52.3 °F 30.18 in WNW 14.0 mph 22.0 mph 66 % 0.00 in 770 W/m2
12:01 64.4 °F 53.6 °F 30.18 in West 12.0 mph 22.0 mph 68 % 0.00 in 689 W/m2
12:06 64.8 °F 53.5 °F 30.18 in West 12.0 mph 20.0 mph 67 % 0.00 in 1167 W/m2
12:11 65.1 °F 53.5 °F 30.19 in West 12.0 mph 20.0 mph 66 % 0.00 in 399 W/m2
12:16 65.1 °F 53.1 °F 30.19 in West 11.0 mph 19.0 mph 65 % 0.00 in 380 W/m2
12:21 65.1 °F 53.5 °F 30.20 in WNW 11.0 mph 19.0 mph 66 % 0.00 in 323 W/m2
12:26 64.9 °F 53.3 °F 30.20 in WNW 11.0 mph 18.0 mph 66 % 0.00 in 510 W/m2
12:31 65.1 °F 53.9 °F 30.19 in WNW 11.0 mph 19.0 mph 67 % 0.00 in 1201 W/m2
12:36 65.7 °F 54.0 °F 30.19 in WNW 10.0 mph 19.0 mph 66 % 0.00 in 526 W/m2
12:41 65.8 °F 53.7 °F 30.19 in WNW 11.0 mph 20.0 mph 65 % 0.00 in 352 W/m2
12:46 65.7 °F 53.6 °F 30.19 in WNW 13.0 mph 22.0 mph 65 % 0.00 in 605 W/m2
12:51 65.7 °F 54.0 °F 30.19 in WNW 13.0 mph 22.0 mph 66 % 0.00 in 427 W/m2
12:56 65.8 °F 54.2 °F 30.20 in WNW 13.0 mph 21.0 mph 66 % 0.00 in 480 W/m2
13:01 65.8 °F 54.2 °F 30.20 in West 13.0 mph 24.0 mph 66 % 0.00 in 610 W/m2
13:06 66.2 °F 54.5 °F 30.20 in West 13.0 mph 24.0 mph 66 % 0.00 in 687 W/m2
13:12 66.2 °F 54.5 °F 30.19 in West 14.0 mph 23.0 mph 66 % 0.00 in 605 W/m2
13:16 66.2 °F 54.9 °F 30.19 in West 12.0 mph 23.0 mph 67 % 0.00 in 381 W/m2
13:22 66.6 °F 55.3 °F 30.19 in WNW 11.0 mph 20.0 mph 67 % 0.00 in 1113 W/m2
13:27 67.3 °F 55.9 °F 30.19 in WNW 11.0 mph 21.0 mph 67 % 0.00 in 1035 W/m2
13:32 67.6 °F 55.5 °F 30.19 in WNW 11.0 mph 21.0 mph 65 % 0.00 in 550 W/m2
13:37 67.6 °F 55.0 °F 30.19 in WNW 12.0 mph 21.0 mph 64 % 0.00 in 942 W/m2
13:42 67.1 °F 54.5 °F 30.19 in WNW 13.0 mph 26.0 mph 64 % 0.00 in 406 W/m2
13:47 66.7 °F 55.0 °F 30.19 in WNW 13.0 mph 26.0 mph 66 % 0.00 in 471 W/m2
13:52 66.7 °F 55.4 °F 30.19 in West 12.0 mph 22.0 mph 67 % 0.00 in 352 W/m2
13:57 66.9 °F 55.6 °F 30.20 in WNW 10.0 mph 19.0 mph 67 % 0.00 in 327 W/m2
14:02 66.9 °F 55.6 °F 30.20 in WNW 10.0 mph 19.0 mph 67 % 0.00 in 322 W/m2
14:07 66.9 °F 55.6 °F 30.20 in WNW 10.0 mph 18.0 mph 67 % 0.00 in 315 W/m2
14:12 66.9 °F 55.6 °F 30.20 in WNW 8.0 mph 16.0 mph 67 % 0.00 in 316 W/m2
14:17 66.9 °F 55.6 °F 30.20 in WNW 9.0 mph 19.0 mph 67 % 0.00 in 308 W/m2
14:22 66.9 °F 55.6 °F 30.20 in West 10.0 mph 19.0 mph 67 % 0.00 in 304 W/m2
14:27 66.9 °F 55.6 °F 30.20 in WNW 9.0 mph 19.0 mph 67 % 0.00 in 243 W/m2
14:32 66.9 °F 55.6 °F 30.20 in WNW 8.0 mph 16.0 mph 67 % 0.00 in 192 W/m2
14:37 66.7 °F 55.4 °F 30.20 in West 9.0 mph 19.0 mph 67 % 0.00 in 192 W/m2
14:42 66.6 °F 55.3 °F 30.20 in West 10.0 mph 19.0 mph 67 % 0.00 in 155 W/m2
14:47 66.4 °F 55.5 °F 30.20 in West 11.0 mph 20.0 mph 68 % 0.00 in 132 W/m2
14:52 66.2 °F 55.3 °F 30.20 in West 9.0 mph 20.0 mph 68 % 0.00 in 135 W/m2
14:57 66.2 °F 55.3 °F 30.20 in West 8.0 mph 16.0 mph 68 % 0.00 in 179 W/m2
14:59 66.2 °F 55.3 °F 30.20 in West 8.0 mph 16.0 mph 68 % 0.00 in 169 W/m2
15:04 66.2 °F 55.3 °F 30.20 in West 9.0 mph 15.0 mph 68 % 0.00 in 141 W/m2
15:09 66.2 °F 55.7 °F 30.20 in West 8.0 mph 14.0 mph 69 % 0.00 in 142 W/m2
15:14 66.2 °F 55.7 °F 30.21 in West 7.0 mph 12.0 mph 69 % 0.00 in 156 W/m2
15:19 66.4 °F 56.3 °F 30.21 in West 7.0 mph 12.0 mph 70 % 0.00 in 179 W/m2
15:24 66.4 °F 55.9 °F 30.20 in WNW 8.0 mph 14.0 mph 69 % 0.00 in 244 W/m2
15:29 66.6 °F 55.7 °F 30.20 in West 9.0 mph 19.0 mph 68 % 0.00 in 237 W/m2
15:34 66.9 °F 56.0 °F 30.20 in West 9.0 mph 19.0 mph 68 % 0.00 in 239 W/m2
15:39 66.9 °F 55.6 °F 30.21 in West 8.0 mph 16.0 mph 67 % 0.00 in 218 W/m2
15:44 66.9 °F 56.0 °F 30.21 in West 8.0 mph 14.0 mph 68 % 0.00 in 192 W/m2
15:49 67.1 °F 55.8 °F 30.21 in West 8.0 mph 15.0 mph 67 % 0.00 in 211 W/m2
15:54 67.1 °F 55.4 °F 30.21 in West 9.0 mph 16.0 mph 66 % 0.00 in 213 W/m2
15:59 67.1 °F 55.8 °F 30.21 in West 10.0 mph 16.0 mph 67 % 0.00 in 181 W/m2
16:04 67.1 °F 55.8 °F 30.20 in West 9.0 mph 16.0 mph 67 % 0.00 in 236 W/m2
16:09 67.3 °F 55.9 °F 30.20 in West 9.0 mph 15.0 mph 67 % 0.00 in 200 W/m2
16:14 67.3 °F 56.4 °F 30.20 in West 9.0 mph 15.0 mph 68 % 0.00 in 171 W/m2
16:19 67.1 °F 56.2 °F 30.20 in West 9.0 mph 15.0 mph 68 % 0.00 in 216 W/m2
16:24 67.3 °F 56.4 °F 30.21 in West 9.0 mph 15.0 mph 68 % 0.00 in 193 W/m2
16:29 67.3 °F 56.4 °F 30.20 in West 9.0 mph 18.0 mph 68 % 0.00 in 360 W/m2
16:34 67.5 °F 56.5 °F 30.20 in West 10.0 mph 22.0 mph 68 % 0.00 in 343 W/m2
16:39 67.6 °F 56.7 °F 30.20 in West 11.0 mph 22.0 mph 68 % 0.00 in 492 W/m2
16:44 68.4 °F 57.0 °F 30.20 in West 12.0 mph 19.0 mph 67 % 0.00 in 506 W/m2
16:49 68.9 °F 57.5 °F 30.20 in West 12.0 mph 19.0 mph 67 % 0.00 in 650 W/m2
16:54 69.3 °F 57.4 °F 30.20 in West 10.0 mph 16.0 mph 66 % 0.00 in 274 W/m2
16:59 69.1 °F 56.8 °F 30.20 in West 11.0 mph 20.0 mph 65 % 0.00 in 714 W/m2
17:04 68.7 °F 56.9 °F 30.20 in West 12.0 mph 20.0 mph 66 % 0.00 in 411 W/m2
17:09 68.7 °F 56.9 °F 30.20 in West 13.0 mph 21.0 mph 66 % 0.00 in 724 W/m2
17:14 68.7 °F 57.3 °F 30.20 in West 13.0 mph 21.0 mph 67 % 0.00 in 355 W/m2
17:19 68.7 °F 57.3 °F 30.20 in West 11.0 mph 18.0 mph 67 % 0.00 in 253 W/m2
17:24 69.1 °F 57.7 °F 30.20 in West 9.0 mph 15.0 mph 67 % 0.00 in 220 W/m2
17:29 68.7 °F 57.3 °F 30.20 in West 8.0 mph 15.0 mph 67 % 0.00 in 199 W/m2
17:35 68.5 °F 57.6 °F 30.20 in West 9.0 mph 16.0 mph 68 % 0.00 in 248 W/m2
17:40 68.4 °F 57.4 °F 30.20 in West 9.0 mph 18.0 mph 68 % 0.00 in 237 W/m2
17:45 68.0 °F 57.4 °F 30.20 in West 10.0 mph 18.0 mph 69 % 0.00 in 269 W/m2
17:50 67.8 °F 57.3 °F 30.20 in West 11.0 mph 18.0 mph 69 % 0.00 in 260 W/m2
17:55 68.2 °F 57.6 °F 30.20 in West 10.0 mph 18.0 mph 69 % 0.00 in 392 W/m2
18:00 68.4 °F 57.4 °F 30.21 in West 10.0 mph 18.0 mph 68 % 0.00 in 220 W/m2
18:05 68.4 °F 57.4 °F 30.20 in West 9.0 mph 16.0 mph 68 % 0.00 in 134 W/m2
18:10 67.8 °F 57.3 °F 30.20 in West 11.0 mph 21.0 mph 69 % 0.00 in 325 W/m2
18:15 67.8 °F 57.3 °F 30.20 in West 12.0 mph 21.0 mph 69 % 0.00 in 392 W/m2
18:20 68.0 °F 57.4 °F 30.20 in West 10.0 mph 18.0 mph 69 % 0.00 in 425 W/m2
18:25 68.2 °F 57.6 °F 30.20 in West 9.0 mph 15.0 mph 69 % 0.00 in 496 W/m2
18:30 68.4 °F 57.8 °F 30.21 in West 9.0 mph 15.0 mph 69 % 0.00 in 211 W/m2
18:35 68.2 °F 57.6 °F 30.21 in West 9.0 mph 15.0 mph 69 % 0.00 in 179 W/m2
18:40 67.8 °F 57.3 °F 30.21 in West 9.0 mph 15.0 mph 69 % 0.00 in 146 W/m2
18:45 67.6 °F 57.5 °F 30.21 in West 8.0 mph 14.0 mph 70 % 0.00 in 125 W/m2
18:50 67.6 °F 57.5 °F 30.21 in West 8.0 mph 14.0 mph 70 % 0.00 in 114 W/m2
18:55 67.6 °F 57.5 °F 30.21 in West 7.0 mph 15.0 mph 70 % 0.00 in 144 W/m2
19:00 67.5 °F 57.7 °F 30.21 in West 7.0 mph 15.0 mph 71 % 0.00 in 128 W/m2
19:05 67.5 °F 57.3 °F 30.21 in West 8.0 mph 14.0 mph 70 % 0.00 in 102 W/m2
19:10 67.3 °F 57.6 °F 30.21 in West 8.0 mph 14.0 mph 71 % 0.00 in 86 W/m2
19:15 67.3 °F 57.6 °F 30.21 in West 7.0 mph 13.0 mph 71 % 0.00 in 83 W/m2
19:20 67.3 °F 57.6 °F 30.21 in West 8.0 mph 13.0 mph 71 % 0.00 in 88 W/m2
19:25 67.1 °F 57.8 °F 30.21 in West 8.0 mph 13.0 mph 72 % 0.00 in 83 W/m2
19:30 66.9 °F 57.6 °F 30.21 in West 9.0 mph 18.0 mph 72 % 0.00 in 74 W/m2
19:35 66.7 °F 57.4 °F 30.21 in West 11.0 mph 19.0 mph 72 % 0.00 in 30 W/m2
19:40 66.6 °F 57.3 °F 30.21 in West 11.0 mph 19.0 mph 72 % 0.00 in 56 W/m2
19:45 66.4 °F 57.5 °F 30.22 in West 10.0 mph 21.0 mph 73 % 0.00 in 109 W/m2
19:50 66.6 °F 57.6 °F 30.21 in West 11.0 mph 21.0 mph 73 % 0.00 in 160 W/m2
19:55 66.6 °F 57.6 °F 30.22 in West 11.0 mph 19.0 mph 73 % 0.00 in 118 W/m2
20:00 66.6 °F 57.6 °F 30.22 in West 10.0 mph 19.0 mph 73 % 0.00 in 134 W/m2
20:05 66.2 °F 57.7 °F 30.22 in West 11.0 mph 22.0 mph 74 % 0.00 in 69 W/m2
20:10 65.8 °F 57.7 °F 30.22 in West 10.0 mph 22.0 mph 75 % 0.00 in 60 W/m2
20:15 65.7 °F 57.9 °F 30.22 in West 9.0 mph 18.0 mph 76 % 0.00 in 47 W/m2
20:20 65.5 °F 58.1 °F 30.22 in West 9.0 mph 18.0 mph 77 % 0.00 in 42 W/m2
20:25 65.3 °F 57.9 °F 30.22 in West 7.0 mph 15.0 mph 77 % 0.00 in 30 W/m2
20:30 65.1 °F 57.7 °F 30.22 in West 6.0 mph 14.0 mph 77 % 0.00 in 26 W/m2
20:35 65.1 °F 58.1 °F 30.22 in West 5.0 mph 14.0 mph 78 % 0.00 in 21 W/m2
20:40 65.1 °F 58.1 °F 30.22 in West 5.0 mph 10.0 mph 78 % 0.00 in 16 W/m2
20:45 65.1 °F 58.1 °F 30.22 in West 5.0 mph 10.0 mph 78 % 0.00 in 16 W/m2
20:46 64.9 °F 57.9 °F 30.22 in West 5.0 mph 10.0 mph 78 % 0.00 in 16 W/m2
20:51 64.9 °F 58.3 °F 30.22 in West 5.0 mph 10.0 mph 79 % 0.00 in 9 W/m2
20:56 64.9 °F 58.3 °F 30.22 in West 6.0 mph 7.0 mph 79 % 0.00 in 7 W/m2
21:01 64.9 °F 58.3 °F 30.22 in West 7.0 mph 14.0 mph 79 % 0.00 in 0 W/m2
21:06 64.9 °F 58.6 °F 30.23 in West 8.0 mph 14.0 mph 80 % 0.00 in 0 W/m2
21:11 64.9 °F 58.6 °F 30.23 in West 7.0 mph 13.0 mph 80 % 0.00 in 0 W/m2
21:16 64.9 °F 58.6 °F 30.23 in West 7.0 mph 11.0 mph 80 % 0.00 in 0 W/m2
21:21 64.9 °F 59.0 °F 30.23 in WNW 6.0 mph 11.0 mph 81 % 0.00 in 5 W/m2
21:26 64.9 °F 59.0 °F 30.23 in WNW 6.0 mph 10.0 mph 81 % 0.00 in 5 W/m2
21:31 64.9 °F 59.0 °F 30.24 in WNW 5.0 mph 10.0 mph 81 % 0.00 in 0 W/m2
21:36 64.9 °F 59.0 °F 30.24 in WNW 4.0 mph 12.0 mph 81 % 0.00 in 0 W/m2
21:41 64.9 °F 59.0 °F 30.24 in WNW 4.0 mph 12.0 mph 81 % 0.00 in 0 W/m2
21:46 64.8 °F 58.8 °F 30.24 in WNW 4.0 mph 7.0 mph 81 % 0.00 in 0 W/m2
21:52 64.8 °F 58.8 °F 30.24 in WNW 4.0 mph 7.0 mph 81 % 0.00 in 0 W/m2
21:57 64.8 °F 58.8 °F 30.24 in WNW 3.0 mph 6.0 mph 81 % 0.00 in 0 W/m2
22:02 64.6 °F 58.6 °F 30.24 in West 4.0 mph 7.0 mph 81 % 0.00 in 0 W/m2
22:07 64.6 °F 58.6 °F 30.24 in WNW 4.0 mph 9.0 mph 81 % 0.00 in 0 W/m2
22:08 64.6 °F 58.6 °F 30.25 in West 4.0 mph 9.0 mph 81 % 0.00 in 0 W/m2
22:13 64.6 °F 58.6 °F 30.24 in WSW 3.0 mph 6.0 mph 81 % 0.00 in 0 W/m2
22:18 64.4 °F 58.4 °F 30.25 in SW 2.0 mph 6.0 mph 81 % 0.00 in 0 W/m2
22:23 64.2 °F 58.6 °F 30.25 in West 2.0 mph 7.0 mph 82 % 0.00 in 0 W/m2
22:27 64.2 °F 58.6 °F 30.25 in WNW 3.0 mph 7.0 mph 82 % 0.00 in 0 W/m2
22:33 64.0 °F 58.4 °F 30.25 in WNW 3.0 mph 7.0 mph 82 % 0.00 in 0 W/m2
22:38 64.0 °F 58.4 °F 30.24 in WNW 4.0 mph 7.0 mph 82 % 0.00 in 0 W/m2
22:43 63.9 °F 58.6 °F 30.25 in West 4.0 mph 9.0 mph 83 % 0.00 in 0 W/m2
22:48 63.9 °F 58.6 °F 30.25 in West 4.0 mph 9.0 mph 83 % 0.00 in 0 W/m2
22:53 63.9 °F 58.6 °F 30.25 in West 4.0 mph 12.0 mph 83 % 0.00 in 0 W/m2
22:58 63.7 °F 58.4 °F 30.25 in West 3.0 mph 12.0 mph 83 % 0.00 in 0 W/m2
23:03 63.7 °F 58.8 °F 30.25 in West 2.0 mph 9.0 mph 84 % 0.00 in 0 W/m2
23:08 63.5 °F 58.6 °F 30.25 in West 3.0 mph 9.0 mph 84 % 0.00 in 0 W/m2
23:13 63.5 °F 58.6 °F 30.26 in WNW 4.0 mph 8.0 mph 84 % 0.00 in 0 W/m2
23:18 63.5 °F 58.9 °F 30.26 in WNW 5.0 mph 10.0 mph 85 % 0.00 in 0 W/m2
23:23 63.3 °F 58.7 °F 30.26 in WNW 5.0 mph 10.0 mph 85 % 0.00 in 0 W/m2
23:28 63.3 °F 59.1 °F 30.26 in WNW 6.0 mph 11.0 mph 86 % 0.00 in 0 W/m2
23:33 63.3 °F 59.1 °F 30.26 in WNW 6.0 mph 11.0 mph 86 % 0.00 in 0 W/m2
23:38 63.3 °F 59.1 °F 30.26 in WNW 6.0 mph 9.0 mph 86 % 0.00 in 0 W/m2
23:43 63.3 °F 59.1 °F 30.26 in WNW 6.0 mph 9.0 mph 86 % 0.00 in 0 W/m2
23:48 63.3 °F 59.1 °F 30.26 in WNW 6.0 mph 9.0 mph 86 % 0.00 in 0 W/m2
23:53 63.3 °F 59.1 °F 30.26 in WNW 5.0 mph 9.0 mph 86 % 0.00 in 0 W/m2
23:58 63.1 °F 58.9 °F 30.26 in WNW 5.0 mph 8.0 mph 86 % 0.00 in 0 W/m2
Delerius-Weather
Compliments of Weather Underground - 2.25 mb

Data updates at regular intervals.